sensor_id;sensor_type;location;lat;lon;timestamp;P1;durP1;ratioP1;P2;durP2;ratioP2
73814;SDS011;62145;55.648;37.602;2024-01-15T00:02:13;15.73;;;5.72;;
73814;SDS011;62145;55.648;37.602;2024-01-15T00:04:39;16.55;;;6.68;;
73814;SDS011;62145;55.648;37.602;2024-01-15T00:07:06;18.17;;;6.33;;
73814;SDS011;62145;55.648;37.602;2024-01-15T00:09:32;17.17;;;6.25;;
73814;SDS011;62145;55.648;37.602;2024-01-15T00:11:59;17.92;;;5.88;;
73814;SDS011;62145;55.648;37.602;2024-01-15T00:14:25;16.25;;;6.90;;
73814;SDS011;62145;55.648;37.602;2024-01-15T00:16:52;18.55;;;7.35;;
73814;SDS011;62145;55.648;37.602;2024-01-15T00:19:22;17.40;;;6.30;;
73814;SDS011;62145;55.648;37.602;2024-01-15T00:21:49;28.35;;;5.55;;
73814;SDS011;62145;55.648;37.602;2024-01-15T00:24:16;15.65;;;5.65;;
73814;SDS011;62145;55.648;37.602;2024-01-15T00:26:42;15.02;;;5.53;;
73814;SDS011;62145;55.648;37.602;2024-01-15T00:29:08;15.18;;;4.63;;
73814;SDS011;62145;55.648;37.602;2024-01-15T00:31:35;15.87;;;6.30;;
73814;SDS011;62145;55.648;37.602;2024-01-15T00:34:01;14.98;;;5.75;;
73814;SDS011;62145;55.648;37.602;2024-01-15T00:36:28;13.63;;;5.90;;
73814;SDS011;62145;55.648;37.602;2024-01-15T00:38:54;14.50;;;6.18;;
73814;SDS011;62145;55.648;37.602;2024-01-15T00:41:23;17.42;;;6.22;;
73814;SDS011;62145;55.648;37.602;2024-01-15T00:43:49;16.80;;;6.93;;
73814;SDS011;62145;55.648;37.602;2024-01-15T00:46:15;20.33;;;6.90;;
73814;SDS011;62145;55.648;37.602;2024-01-15T00:48:41;14.32;;;5.28;;
73814;SDS011;62145;55.648;37.602;2024-01-15T00:51:07;17.40;;;7.30;;
73814;SDS011;62145;55.648;37.602;2024-01-15T00:53:33;17.45;;;5.63;;
73814;SDS011;62145;55.648;37.602;2024-01-15T00:55:59;21.83;;;7.57;;
73814;SDS011;62145;55.648;37.602;2024-01-15T00:58:26;15.45;;;6.07;;
73814;SDS011;62145;55.648;37.602;2024-01-15T01:00:52;15.98;;;6.45;;
73814;SDS011;62145;55.648;37.602;2024-01-15T01:03:18;20.33;;;7.03;;
73814;SDS011;62145;55.648;37.602;2024-01-15T01:05:44;20.73;;;6.70;;
73814;SDS011;62145;55.648;37.602;2024-01-15T01:08:10;20.85;;;6.43;;
73814;SDS011;62145;55.648;37.602;2024-01-15T01:10:37;16.02;;;6.68;;
73814;SDS011;62145;55.648;37.602;2024-01-15T01:13:03;16.23;;;6.68;;
73814;SDS011;62145;55.648;37.602;2024-01-15T01:15:29;14.98;;;5.82;;
73814;SDS011;62145;55.648;37.602;2024-01-15T01:17:55;19.17;;;6.37;;
73814;SDS011;62145;55.648;37.602;2024-01-15T01:20:21;14.23;;;5.50;;
73814;SDS011;62145;55.648;37.602;2024-01-15T01:22:47;19.65;;;6.93;;
73814;SDS011;62145;55.648;37.602;2024-01-15T01:25:13;15.48;;;5.65;;
73814;SDS011;62145;55.648;37.602;2024-01-15T01:27:39;17.52;;;6.15;;
73814;SDS011;62145;55.648;37.602;2024-01-15T01:30:05;16.47;;;5.73;;
73814;SDS011;62145;55.648;37.602;2024-01-15T01:32:32;15.38;;;5.35;;
73814;SDS011;62145;55.648;37.602;2024-01-15T01:34:58;18.15;;;5.68;;
73814;SDS011;62145;55.648;37.602;2024-01-15T01:37:24;11.30;;;4.10;;
73814;SDS011;62145;55.648;37.602;2024-01-15T01:39:50;14.20;;;5.43;;
73814;SDS011;62145;55.648;37.602;2024-01-15T01:42:16;20.13;;;6.03;;
73814;SDS011;62145;55.648;37.602;2024-01-15T01:44:42;18.42;;;6.45;;
73814;SDS011;62145;55.648;37.602;2024-01-15T01:47:08;20.95;;;6.65;;
73814;SDS011;62145;55.648;37.602;2024-01-15T01:49:34;12.00;;;4.15;;
73814;SDS011;62145;55.648;37.602;2024-01-15T01:52:06;17.63;;;6.57;;
73814;SDS011;62145;55.648;37.602;2024-01-15T01:54:32;17.42;;;6.03;;
73814;SDS011;62145;55.648;37.602;2024-01-15T01:56:59;18.85;;;6.18;;
73814;SDS011;62145;55.648;37.602;2024-01-15T01:59:28;20.98;;;7.70;;
73814;SDS011;62145;55.648;37.602;2024-01-15T02:01:54;19.05;;;6.63;;
73814;SDS011;62145;55.648;37.602;2024-01-15T02:04:21;21.20;;;7.87;;
73814;SDS011;62145;55.648;37.602;2024-01-15T02:06:50;16.42;;;5.90;;
73814;SDS011;62145;55.648;37.602;2024-01-15T02:09:19;15.07;;;5.57;;
73814;SDS011;62145;55.648;37.602;2024-01-15T02:11:48;19.83;;;6.72;;
73814;SDS011;62145;55.648;37.602;2024-01-15T02:14:15;15.00;;;5.82;;
73814;SDS011;62145;55.648;37.602;2024-01-15T02:16:41;16.53;;;5.47;;
73814;SDS011;62145;55.648;37.602;2024-01-15T02:19:07;13.48;;;4.22;;
73814;SDS011;62145;55.648;37.602;2024-01-15T02:21:40;16.27;;;6.10;;
73814;SDS011;62145;55.648;37.602;2024-01-15T02:24:07;21.10;;;7.50;;
73814;SDS011;62145;55.648;37.602;2024-01-15T02:26:34;21.20;;;7.88;;
73814;SDS011;62145;55.648;37.602;2024-01-15T02:29:02;19.57;;;7.43;;
73814;SDS011;62145;55.648;37.602;2024-01-15T02:31:29;15.38;;;5.90;;
73814;SDS011;62145;55.648;37.602;2024-01-15T02:33:55;20.20;;;7.20;;
73814;SDS011;62145;55.648;37.602;2024-01-15T02:36:21;19.67;;;7.90;;
73814;SDS011;62145;55.648;37.602;2024-01-15T02:38:47;16.88;;;7.03;;
73814;SDS011;62145;55.648;37.602;2024-01-15T02:41:13;23.17;;;8.27;;
73814;SDS011;62145;55.648;37.602;2024-01-15T02:43:40;22.45;;;7.90;;
73814;SDS011;62145;55.648;37.602;2024-01-15T02:46:07;25.00;;;8.70;;
73814;SDS011;62145;55.648;37.602;2024-01-15T02:48:33;18.93;;;6.93;;
73814;SDS011;62145;55.648;37.602;2024-01-15T02:51:02;21.75;;;8.93;;
73814;SDS011;62145;55.648;37.602;2024-01-15T02:53:28;22.88;;;8.80;;
73814;SDS011;62145;55.648;37.602;2024-01-15T02:55:54;25.35;;;10.18;;
73814;SDS011;62145;55.648;37.602;2024-01-15T02:58:21;25.35;;;9.30;;
73814;SDS011;62145;55.648;37.602;2024-01-15T03:00:47;22.63;;;7.00;;
73814;SDS011;62145;55.648;37.602;2024-01-15T03:03:13;19.60;;;7.63;;
73814;SDS011;62145;55.648;37.602;2024-01-15T03:05:39;25.50;;;9.02;;
73814;SDS011;62145;55.648;37.602;2024-01-15T03:08:05;22.73;;;8.23;;
73814;SDS011;62145;55.648;37.602;2024-01-15T03:10:32;20.83;;;7.43;;
73814;SDS011;62145;55.648;37.602;2024-01-15T03:12:58;21.48;;;8.07;;
73814;SDS011;62145;55.648;37.602;2024-01-15T03:15:24;19.60;;;7.72;;
73814;SDS011;62145;55.648;37.602;2024-01-15T03:17:52;25.65;;;7.93;;
73814;SDS011;62145;55.648;37.602;2024-01-15T03:20:19;21.80;;;8.07;;
73814;SDS011;62145;55.648;37.602;2024-01-15T03:22:45;20.00;;;7.30;;
73814;SDS011;62145;55.648;37.602;2024-01-15T03:25:11;19.23;;;7.85;;
73814;SDS011;62145;55.648;37.602;2024-01-15T03:27:37;19.27;;;6.70;;
73814;SDS011;62145;55.648;37.602;2024-01-15T03:30:03;22.55;;;6.82;;
73814;SDS011;62145;55.648;37.602;2024-01-15T03:32:30;25.63;;;8.10;;
73814;SDS011;62145;55.648;37.602;2024-01-15T03:34:56;20.38;;;7.57;;
73814;SDS011;62145;55.648;37.602;2024-01-15T03:37:23;24.80;;;8.60;;
73814;SDS011;62145;55.648;37.602;2024-01-15T03:39:49;23.85;;;8.35;;
73814;SDS011;62145;55.648;37.602;2024-01-15T03:42:15;28.48;;;8.18;;
73814;SDS011;62145;55.648;37.602;2024-01-15T03:44:41;19.80;;;7.53;;
73814;SDS011;62145;55.648;37.602;2024-01-15T03:47:07;19.63;;;7.07;;
73814;SDS011;62145;55.648;37.602;2024-01-15T03:49:33;18.95;;;7.40;;
73814;SDS011;62145;55.648;37.602;2024-01-15T03:51:59;22.30;;;8.60;;
73814;SDS011;62145;55.648;37.602;2024-01-15T03:54:25;21.98;;;8.00;;
73814;SDS011;62145;55.648;37.602;2024-01-15T03:56:52;20.17;;;7.55;;
73814;SDS011;62145;55.648;37.602;2024-01-15T03:59:18;18.05;;;7.40;;
73814;SDS011;62145;55.648;37.602;2024-01-15T04:01:48;19.95;;;8.65;;
73814;SDS011;62145;55.648;37.602;2024-01-15T04:04:17;24.50;;;8.13;;
73814;SDS011;62145;55.648;37.602;2024-01-15T04:06:43;19.33;;;6.57;;
73814;SDS011;62145;55.648;37.602;2024-01-15T04:09:09;18.90;;;6.97;;
73814;SDS011;62145;55.648;37.602;2024-01-15T04:11:35;21.23;;;8.60;;
73814;SDS011;62145;55.648;37.602;2024-01-15T04:14:01;24.20;;;8.13;;
73814;SDS011;62145;55.648;37.602;2024-01-15T04:16:27;20.30;;;7.50;;
73814;SDS011;62145;55.648;37.602;2024-01-15T04:18:53;18.52;;;7.57;;
73814;SDS011;62145;55.648;37.602;2024-01-15T04:21:19;17.80;;;7.28;;
73814;SDS011;62145;55.648;37.602;2024-01-15T04:23:46;26.43;;;9.20;;
73814;SDS011;62145;55.648;37.602;2024-01-15T04:26:12;16.13;;;6.07;;
73814;SDS011;62145;55.648;37.602;2024-01-15T04:28:38;21.42;;;7.88;;
73814;SDS011;62145;55.648;37.602;2024-01-15T04:31:04;24.52;;;9.30;;
73814;SDS011;62145;55.648;37.602;2024-01-15T04:33:30;19.20;;;7.07;;
73814;SDS011;62145;55.648;37.602;2024-01-15T04:35:56;24.55;;;9.25;;
73814;SDS011;62145;55.648;37.602;2024-01-15T04:38:22;29.42;;;9.30;;
73814;SDS011;62145;55.648;37.602;2024-01-15T04:40:48;24.33;;;8.90;;
73814;SDS011;62145;55.648;37.602;2024-01-15T04:43:14;22.75;;;8.20;;
73814;SDS011;62145;55.648;37.602;2024-01-15T04:45:40;24.10;;;8.70;;
73814;SDS011;62145;55.648;37.602;2024-01-15T04:48:08;24.92;;;8.27;;
73814;SDS011;62145;55.648;37.602;2024-01-15T04:50:34;24.30;;;9.23;;
73814;SDS011;62145;55.648;37.602;2024-01-15T04:53:00;20.50;;;7.95;;
73814;SDS011;62145;55.648;37.602;2024-01-15T04:55:26;20.50;;;7.85;;
73814;SDS011;62145;55.648;37.602;2024-01-15T04:57:52;24.37;;;8.23;;
73814;SDS011;62145;55.648;37.602;2024-01-15T05:00:18;26.70;;;9.07;;
73814;SDS011;62145;55.648;37.602;2024-01-15T05:02:45;23.45;;;8.80;;
73814;SDS011;62145;55.648;37.602;2024-01-15T05:05:11;25.83;;;9.23;;
73814;SDS011;62145;55.648;37.602;2024-01-15T05:07:37;25.58;;;8.95;;
73814;SDS011;62145;55.648;37.602;2024-01-15T05:10:03;20.92;;;7.68;;
73814;SDS011;62145;55.648;37.602;2024-01-15T05:12:30;17.45;;;6.70;;
73814;SDS011;62145;55.648;37.602;2024-01-15T05:14:55;22.63;;;8.57;;
73814;SDS011;62145;55.648;37.602;2024-01-15T05:17:21;26.48;;;9.00;;
73814;SDS011;62145;55.648;37.602;2024-01-15T05:19:47;25.00;;;8.77;;
73814;SDS011;62145;55.648;37.602;2024-01-15T05:22:13;31.65;;;10.68;;
73814;SDS011;62145;55.648;37.602;2024-01-15T05:24:39;23.10;;;9.17;;
73814;SDS011;62145;55.648;37.602;2024-01-15T05:27:05;22.70;;;8.43;;
73814;SDS011;62145;55.648;37.602;2024-01-15T05:29:31;27.38;;;9.18;;
73814;SDS011;62145;55.648;37.602;2024-01-15T05:31:58;19.48;;;7.72;;
73814;SDS011;62145;55.648;37.602;2024-01-15T05:34:26;22.17;;;7.20;;
73814;SDS011;62145;55.648;37.602;2024-01-15T05:36:52;17.05;;;6.88;;
73814;SDS011;62145;55.648;37.602;2024-01-15T05:39:18;18.15;;;6.72;;
73814;SDS011;62145;55.648;37.602;2024-01-15T05:41:44;23.02;;;7.97;;
73814;SDS011;62145;55.648;37.602;2024-01-15T05:44:10;20.27;;;6.82;;
73814;SDS011;62145;55.648;37.602;2024-01-15T05:46:36;23.77;;;8.57;;
73814;SDS011;62145;55.648;37.602;2024-01-15T05:49:02;20.85;;;7.20;;
73814;SDS011;62145;55.648;37.602;2024-01-15T05:51:28;17.35;;;6.07;;
73814;SDS011;62145;55.648;37.602;2024-01-15T05:53:54;19.83;;;7.03;;
73814;SDS011;62145;55.648;37.602;2024-01-15T05:56:20;23.42;;;8.57;;
73814;SDS011;62145;55.648;37.602;2024-01-15T05:58:46;26.08;;;8.25;;
73814;SDS011;62145;55.648;37.602;2024-01-15T06:01:12;11.80;;;5.15;;
73814;SDS011;62145;55.648;37.602;2024-01-15T06:03:38;23.88;;;8.40;;
73814;SDS011;62145;55.648;37.602;2024-01-15T06:06:04;25.70;;;9.40;;
73814;SDS011;62145;55.648;37.602;2024-01-15T06:08:30;28.45;;;9.77;;
73814;SDS011;62145;55.648;37.602;2024-01-15T06:10:56;19.73;;;7.75;;
73814;SDS011;62145;55.648;37.602;2024-01-15T06:13:22;29.98;;;10.18;;
73814;SDS011;62145;55.648;37.602;2024-01-15T06:15:48;25.90;;;9.33;;
73814;SDS011;62145;55.648;37.602;2024-01-15T06:18:14;21.92;;;8.25;;
73814;SDS011;62145;55.648;37.602;2024-01-15T06:20:40;24.55;;;9.23;;
73814;SDS011;62145;55.648;37.602;2024-01-15T06:23:06;29.98;;;10.00;;
73814;SDS011;62145;55.648;37.602;2024-01-15T06:25:33;22.13;;;8.90;;
73814;SDS011;62145;55.648;37.602;2024-01-15T06:27:59;26.27;;;9.18;;
73814;SDS011;62145;55.648;37.602;2024-01-15T06:30:25;30.85;;;9.40;;
73814;SDS011;62145;55.648;37.602;2024-01-15T06:32:51;26.45;;;9.85;;
73814;SDS011;62145;55.648;37.602;2024-01-15T06:35:17;24.63;;;9.43;;
73814;SDS011;62145;55.648;37.602;2024-01-15T06:37:43;27.63;;;9.93;;
73814;SDS011;62145;55.648;37.602;2024-01-15T06:40:09;26.95;;;9.52;;
73814;SDS011;62145;55.648;37.602;2024-01-15T06:42:35;24.27;;;8.52;;
73814;SDS011;62145;55.648;37.602;2024-01-15T06:45:01;25.80;;;9.10;;
73814;SDS011;62145;55.648;37.602;2024-01-15T06:47:28;28.02;;;9.52;;
73814;SDS011;62145;55.648;37.602;2024-01-15T06:49:54;26.15;;;8.50;;
73814;SDS011;62145;55.648;37.602;2024-01-15T06:52:20;27.30;;;9.15;;
73814;SDS011;62145;55.648;37.602;2024-01-15T06:54:46;26.17;;;10.03;;
73814;SDS011;62145;55.648;37.602;2024-01-15T06:57:13;26.15;;;9.13;;
73814;SDS011;62145;55.648;37.602;2024-01-15T06:59:39;28.70;;;10.30;;
73814;SDS011;62145;55.648;37.602;2024-01-15T07:02:05;23.23;;;8.23;;
73814;SDS011;62145;55.648;37.602;2024-01-15T07:04:31;26.73;;;9.07;;
73814;SDS011;62145;55.648;37.602;2024-01-15T07:06:57;25.10;;;9.18;;
73814;SDS011;62145;55.648;37.602;2024-01-15T07:09:23;32.08;;;10.07;;
73814;SDS011;62145;55.648;37.602;2024-01-15T07:11:49;27.48;;;10.07;;
73814;SDS011;62145;55.648;37.602;2024-01-15T07:14:15;26.00;;;9.43;;
73814;SDS011;62145;55.648;37.602;2024-01-15T07:16:41;25.05;;;10.18;;
73814;SDS011;62145;55.648;37.602;2024-01-15T07:19:07;24.33;;;9.10;;
73814;SDS011;62145;55.648;37.602;2024-01-15T07:21:33;29.25;;;10.32;;
73814;SDS011;62145;55.648;37.602;2024-01-15T07:23:59;24.98;;;9.15;;
73814;SDS011;62145;55.648;37.602;2024-01-15T07:26:24;27.30;;;9.40;;
73814;SDS011;62145;55.648;37.602;2024-01-15T07:28:51;26.60;;;9.23;;
73814;SDS011;62145;55.648;37.602;2024-01-15T07:31:17;22.50;;;8.47;;
73814;SDS011;62145;55.648;37.602;2024-01-15T07:33:43;28.88;;;10.00;;
73814;SDS011;62145;55.648;37.602;2024-01-15T07:36:09;26.58;;;10.02;;
73814;SDS011;62145;55.648;37.602;2024-01-15T07:38:35;27.13;;;10.48;;
73814;SDS011;62145;55.648;37.602;2024-01-15T07:41:02;28.93;;;9.70;;
73814;SDS011;62145;55.648;37.602;2024-01-15T07:43:29;30.38;;;10.27;;
73814;SDS011;62145;55.648;37.602;2024-01-15T07:45:55;30.45;;;10.68;;
73814;SDS011;62145;55.648;37.602;2024-01-15T07:48:21;26.55;;;10.00;;
73814;SDS011;62145;55.648;37.602;2024-01-15T07:50:47;21.88;;;8.50;;
73814;SDS011;62145;55.648;37.602;2024-01-15T07:53:15;23.63;;;9.50;;
73814;SDS011;62145;55.648;37.602;2024-01-15T07:55:41;28.40;;;10.00;;
73814;SDS011;62145;55.648;37.602;2024-01-15T07:58:07;25.73;;;10.30;;
73814;SDS011;62145;55.648;37.602;2024-01-15T08:00:34;26.65;;;9.32;;
73814;SDS011;62145;55.648;37.602;2024-01-15T08:03:00;26.53;;;8.83;;
73814;SDS011;62145;55.648;37.602;2024-01-15T08:05:26;25.08;;;9.20;;
73814;SDS011;62145;55.648;37.602;2024-01-15T08:07:52;27.40;;;10.85;;
73814;SDS011;62145;55.648;37.602;2024-01-15T08:10:18;27.40;;;10.00;;
73814;SDS011;62145;55.648;37.602;2024-01-15T08:12:44;28.57;;;9.97;;
73814;SDS011;62145;55.648;37.602;2024-01-15T08:15:10;50.03;;;13.70;;
73814;SDS011;62145;55.648;37.602;2024-01-15T08:17:36;30.70;;;10.95;;
73814;SDS011;62145;55.648;37.602;2024-01-15T08:20:02;28.45;;;10.63;;
73814;SDS011;62145;55.648;37.602;2024-01-15T08:22:30;27.93;;;10.13;;
73814;SDS011;62145;55.648;37.602;2024-01-15T08:24:56;31.13;;;10.73;;
73814;SDS011;62145;55.648;37.602;2024-01-15T08:27:22;23.65;;;9.32;;
73814;SDS011;62145;55.648;37.602;2024-01-15T08:29:48;29.38;;;11.07;;
73814;SDS011;62145;55.648;37.602;2024-01-15T08:32:14;29.85;;;11.00;;
73814;SDS011;62145;55.648;37.602;2024-01-15T08:34:41;29.57;;;10.23;;
73814;SDS011;62145;55.648;37.602;2024-01-15T08:37:11;29.75;;;10.25;;
73814;SDS011;62145;55.648;37.602;2024-01-15T08:39:37;25.75;;;9.93;;
73814;SDS011;62145;55.648;37.602;2024-01-15T08:42:04;27.30;;;10.68;;
73814;SDS011;62145;55.648;37.602;2024-01-15T08:44:31;29.07;;;10.97;;
73814;SDS011;62145;55.648;37.602;2024-01-15T08:46:57;30.48;;;10.80;;
73814;SDS011;62145;55.648;37.602;2024-01-15T08:49:23;30.70;;;10.98;;
73814;SDS011;62145;55.648;37.602;2024-01-15T08:51:49;30.60;;;11.10;;
73814;SDS011;62145;55.648;37.602;2024-01-15T08:54:15;29.37;;;10.73;;
73814;SDS011;62145;55.648;37.602;2024-01-15T08:56:41;20.15;;;8.52;;
73814;SDS011;62145;55.648;37.602;2024-01-15T08:59:06;25.83;;;10.82;;
73814;SDS011;62145;55.648;37.602;2024-01-15T09:01:32;26.50;;;10.50;;
73814;SDS011;62145;55.648;37.602;2024-01-15T09:03:58;29.83;;;10.50;;
73814;SDS011;62145;55.648;37.602;2024-01-15T09:06:24;25.40;;;9.02;;
73814;SDS011;62145;55.648;37.602;2024-01-15T09:08:50;29.00;;;10.10;;
73814;SDS011;62145;55.648;37.602;2024-01-15T09:11:16;27.70;;;10.23;;
73814;SDS011;62145;55.648;37.602;2024-01-15T09:13:42;24.80;;;9.47;;
73814;SDS011;62145;55.648;37.602;2024-01-15T09:16:08;26.25;;;9.98;;
73814;SDS011;62145;55.648;37.602;2024-01-15T09:18:35;34.20;;;12.30;;
73814;SDS011;62145;55.648;37.602;2024-01-15T09:21:01;24.30;;;8.18;;
73814;SDS011;62145;55.648;37.602;2024-01-15T09:23:29;26.33;;;9.97;;
73814;SDS011;62145;55.648;37.602;2024-01-15T09:25:55;24.23;;;9.10;;
73814;SDS011;62145;55.648;37.602;2024-01-15T09:28:21;27.73;;;9.63;;
73814;SDS011;62145;55.648;37.602;2024-01-15T09:30:47;26.35;;;9.68;;
73814;SDS011;62145;55.648;37.602;2024-01-15T09:33:13;25.02;;;8.90;;
73814;SDS011;62145;55.648;37.602;2024-01-15T09:35:39;26.07;;;8.77;;
73814;SDS011;62145;55.648;37.602;2024-01-15T09:38:07;20.67;;;8.80;;
73814;SDS011;62145;55.648;37.602;2024-01-15T09:40:33;25.08;;;9.38;;
73814;SDS011;62145;55.648;37.602;2024-01-15T09:42:59;27.15;;;9.52;;
73814;SDS011;62145;55.648;37.602;2024-01-15T09:45:26;22.43;;;8.60;;
73814;SDS011;62145;55.648;37.602;2024-01-15T09:47:52;22.23;;;8.23;;
73814;SDS011;62145;55.648;37.602;2024-01-15T09:50:18;21.63;;;8.77;;
73814;SDS011;62145;55.648;37.602;2024-01-15T09:52:44;18.73;;;7.68;;
73814;SDS011;62145;55.648;37.602;2024-01-15T09:55:11;36.65;;;12.77;;
73814;SDS011;62145;55.648;37.602;2024-01-15T09:57:38;23.03;;;8.30;;
73814;SDS011;62145;55.648;37.602;2024-01-15T10:00:05;20.27;;;8.43;;
73814;SDS011;62145;55.648;37.602;2024-01-15T10:02:32;25.73;;;9.05;;
73814;SDS011;62145;55.648;37.602;2024-01-15T10:04:58;21.67;;;8.02;;
73814;SDS011;62145;55.648;37.602;2024-01-15T10:07:24;16.75;;;6.95;;
73814;SDS011;62145;55.648;37.602;2024-01-15T10:09:51;19.33;;;8.27;;
73814;SDS011;62145;55.648;37.602;2024-01-15T10:12:17;23.20;;;8.98;;
73814;SDS011;62145;55.648;37.602;2024-01-15T10:14:43;19.15;;;7.07;;
73814;SDS011;62145;55.648;37.602;2024-01-15T10:17:13;25.30;;;9.07;;
73814;SDS011;62145;55.648;37.602;2024-01-15T10:19:44;24.17;;;8.90;;
73814;SDS011;62145;55.648;37.602;2024-01-15T10:22:11;27.65;;;9.30;;
73814;SDS011;62145;55.648;37.602;2024-01-15T10:24:37;23.50;;;9.00;;
73814;SDS011;62145;55.648;37.602;2024-01-15T10:27:04;21.25;;;7.78;;
73814;SDS011;62145;55.648;37.602;2024-01-15T10:29:32;22.13;;;8.68;;
73814;SDS011;62145;55.648;37.602;2024-01-15T10:31:58;24.27;;;9.50;;
73814;SDS011;62145;55.648;37.602;2024-01-15T10:34:24;22.83;;;9.38;;
73814;SDS011;62145;55.648;37.602;2024-01-15T10:36:50;23.50;;;8.80;;
73814;SDS011;62145;55.648;37.602;2024-01-15T10:39:21;24.02;;;9.02;;
73814;SDS011;62145;55.648;37.602;2024-01-15T10:41:49;20.58;;;7.10;;
73814;SDS011;62145;55.648;37.602;2024-01-15T10:44:17;22.80;;;9.57;;
73814;SDS011;62145;55.648;37.602;2024-01-15T10:46:47;21.63;;;7.82;;
73814;SDS011;62145;55.648;37.602;2024-01-15T10:49:16;23.85;;;9.82;;
73814;SDS011;62145;55.648;37.602;2024-01-15T10:51:44;26.27;;;9.63;;
73814;SDS011;62145;55.648;37.602;2024-01-15T10:54:10;26.38;;;8.77;;
73814;SDS011;62145;55.648;37.602;2024-01-15T10:56:39;21.97;;;9.10;;
73814;SDS011;62145;55.648;37.602;2024-01-15T10:59:06;22.73;;;8.82;;
73814;SDS011;62145;55.648;37.602;2024-01-15T11:01:33;23.83;;;9.40;;
73814;SDS011;62145;55.648;37.602;2024-01-15T11:04:00;26.48;;;10.13;;
73814;SDS011;62145;55.648;37.602;2024-01-15T11:06:26;18.65;;;7.30;;
73814;SDS011;62145;55.648;37.602;2024-01-15T11:08:56;23.07;;;9.07;;
73814;SDS011;62145;55.648;37.602;2024-01-15T11:11:22;25.60;;;9.50;;
73814;SDS011;62145;55.648;37.602;2024-01-15T11:13:49;24.30;;;9.25;;
73814;SDS011;62145;55.648;37.602;2024-01-15T11:16:18;24.02;;;9.30;;
73814;SDS011;62145;55.648;37.602;2024-01-15T11:21:23;21.33;;;8.00;;
73814;SDS011;62145;55.648;37.602;2024-01-15T11:24:00;24.50;;;8.93;;
73814;SDS011;62145;55.648;37.602;2024-01-15T11:26:46;24.73;;;9.70;;
73814;SDS011;62145;55.648;37.602;2024-01-15T11:31:57;21.63;;;8.68;;
73814;SDS011;62145;55.648;37.602;2024-01-15T11:37:20;24.67;;;9.48;;
73814;SDS011;62145;55.648;37.602;2024-01-15T11:39:50;21.45;;;9.18;;
73814;SDS011;62145;55.648;37.602;2024-01-15T11:42:20;24.88;;;9.80;;
73814;SDS011;62145;55.648;37.602;2024-01-15T11:44:47;23.15;;;9.50;;
73814;SDS011;62145;55.648;37.602;2024-01-15T11:47:14;23.10;;;8.70;;
73814;SDS011;62145;55.648;37.602;2024-01-15T11:49:58;22.73;;;9.02;;
73814;SDS011;62145;55.648;37.602;2024-01-15T11:52:33;23.65;;;10.02;;
73814;SDS011;62145;55.648;37.602;2024-01-15T11:55:22;30.27;;;10.18;;
73814;SDS011;62145;55.648;37.602;2024-01-15T11:57:52;25.25;;;9.45;;
73814;SDS011;62145;55.648;37.602;2024-01-15T12:00:22;27.33;;;9.87;;
73814;SDS011;62145;55.648;37.602;2024-01-15T12:02:48;25.00;;;9.80;;
73814;SDS011;62145;55.648;37.602;2024-01-15T12:05:15;24.88;;;9.45;;
73814;SDS011;62145;55.648;37.602;2024-01-15T12:07:43;25.40;;;9.82;;
73814;SDS011;62145;55.648;37.602;2024-01-15T12:10:16;22.52;;;8.10;;
73814;SDS011;62145;55.648;37.602;2024-01-15T12:12:54;22.23;;;8.97;;
73814;SDS011;62145;55.648;37.602;2024-01-15T12:15:26;23.35;;;9.70;;
73814;SDS011;62145;55.648;37.602;2024-01-15T12:17:54;22.55;;;9.00;;
73814;SDS011;62145;55.648;37.602;2024-01-15T12:20:30;23.75;;;9.57;;
73814;SDS011;62145;55.648;37.602;2024-01-15T12:22:57;24.90;;;9.45;;
73814;SDS011;62145;55.648;37.602;2024-01-15T12:25:24;21.00;;;7.83;;
73814;SDS011;62145;55.648;37.602;2024-01-15T12:27:51;23.30;;;8.88;;
73814;SDS011;62145;55.648;37.602;2024-01-15T12:30:17;22.15;;;9.18;;
73814;SDS011;62145;55.648;37.602;2024-01-15T12:32:44;26.42;;;10.32;;
73814;SDS011;62145;55.648;37.602;2024-01-15T12:35:11;24.23;;;9.20;;
73814;SDS011;62145;55.648;37.602;2024-01-15T12:37:38;23.13;;;9.50;;
73814;SDS011;62145;55.648;37.602;2024-01-15T12:40:05;25.80;;;9.55;;
73814;SDS011;62145;55.648;37.602;2024-01-15T12:42:32;28.90;;;10.73;;
73814;SDS011;62145;55.648;37.602;2024-01-15T12:45:03;23.48;;;9.85;;
73814;SDS011;62145;55.648;37.602;2024-01-15T12:47:30;27.33;;;10.87;;
73814;SDS011;62145;55.648;37.602;2024-01-15T12:49:57;26.83;;;10.90;;
73814;SDS011;62145;55.648;37.602;2024-01-15T12:52:28;28.83;;;10.73;;
73814;SDS011;62145;55.648;37.602;2024-01-15T12:54:55;27.35;;;10.18;;
73814;SDS011;62145;55.648;37.602;2024-01-15T12:57:21;26.83;;;10.35;;
73814;SDS011;62145;55.648;37.602;2024-01-15T12:59:48;27.07;;;10.10;;
73814;SDS011;62145;55.648;37.602;2024-01-15T13:02:15;24.60;;;9.85;;
73814;SDS011;62145;55.648;37.602;2024-01-15T13:04:42;25.95;;;10.90;;
73814;SDS011;62145;55.648;37.602;2024-01-15T13:07:09;28.67;;;10.57;;
73814;SDS011;62145;55.648;37.602;2024-01-15T13:09:35;26.33;;;10.60;;
73814;SDS011;62145;55.648;37.602;2024-01-15T13:12:02;28.63;;;10.53;;
73814;SDS011;62145;55.648;37.602;2024-01-15T13:14:28;25.70;;;9.68;;
73814;SDS011;62145;55.648;37.602;2024-01-15T13:16:54;28.42;;;9.98;;
73814;SDS011;62145;55.648;37.602;2024-01-15T13:19:22;29.75;;;9.77;;
73814;SDS011;62145;55.648;37.602;2024-01-15T13:21:48;28.07;;;10.03;;
73814;SDS011;62145;55.648;37.602;2024-01-15T13:24:15;25.55;;;10.07;;
73814;SDS011;62145;55.648;37.602;2024-01-15T13:26:41;30.90;;;11.77;;
73814;SDS011;62145;55.648;37.602;2024-01-15T13:29:07;29.05;;;11.20;;
73814;SDS011;62145;55.648;37.602;2024-01-15T13:31:33;30.17;;;11.13;;
73814;SDS011;62145;55.648;37.602;2024-01-15T13:33:59;28.63;;;10.65;;
73814;SDS011;62145;55.648;37.602;2024-01-15T13:36:26;23.42;;;7.85;;
73814;SDS011;62145;55.648;37.602;2024-01-15T13:38:53;24.90;;;10.55;;
73814;SDS011;62145;55.648;37.602;2024-01-15T13:41:20;31.38;;;11.43;;
73814;SDS011;62145;55.648;37.602;2024-01-15T13:44:04;25.70;;;10.13;;
73814;SDS011;62145;55.648;37.602;2024-01-15T13:46:30;28.02;;;9.85;;
73814;SDS011;62145;55.648;37.602;2024-01-15T13:48:56;25.17;;;9.63;;
73814;SDS011;62145;55.648;37.602;2024-01-15T13:51:22;28.83;;;10.77;;
73814;SDS011;62145;55.648;37.602;2024-01-15T13:53:51;22.67;;;7.93;;
73814;SDS011;62145;55.648;37.602;2024-01-15T13:56:18;28.48;;;10.25;;
73814;SDS011;62145;55.648;37.602;2024-01-15T13:58:44;27.50;;;9.30;;
73814;SDS011;62145;55.648;37.602;2024-01-15T14:01:11;27.50;;;10.32;;
73814;SDS011;62145;55.648;37.602;2024-01-15T14:03:37;27.58;;;9.80;;
73814;SDS011;62145;55.648;37.602;2024-01-15T14:06:03;24.97;;;8.83;;
73814;SDS011;62145;55.648;37.602;2024-01-15T14:08:30;27.85;;;11.00;;
73814;SDS011;62145;55.648;37.602;2024-01-15T14:10:56;29.52;;;10.68;;
73814;SDS011;62145;55.648;37.602;2024-01-15T14:13:23;28.65;;;10.63;;
73814;SDS011;62145;55.648;37.602;2024-01-15T14:15:49;27.03;;;10.43;;
73814;SDS011;62145;55.648;37.602;2024-01-15T14:18:16;30.48;;;11.40;;
73814;SDS011;62145;55.648;37.602;2024-01-15T14:20:43;27.23;;;10.43;;
73814;SDS011;62145;55.648;37.602;2024-01-15T14:23:09;33.30;;;11.75;;
73814;SDS011;62145;55.648;37.602;2024-01-15T14:25:35;31.58;;;11.15;;